sensor_id;sensor_type;location;lat;lon;timestamp;pressure;altitude;pressure_sealevel;temperature;humidity
19457;BME280;9867;48.094;11.478;2023-01-27T00:00:10;95175.41;;;-0.21;100.00
19457;BME280;9867;48.094;11.478;2023-01-27T00:02:39;95177.72;;;-0.58;100.00
19457;BME280;9867;48.094;11.478;2023-01-27T00:05:07;95173.97;;;-0.64;100.00
19457;BME280;9867;48.094;11.478;2023-01-27T00:07:35;95171.56;;;-0.75;100.00
19457;BME280;9867;48.094;11.478;2023-01-27T00:10:04;95172.97;;;-0.82;100.00
19457;BME280;9867;48.094;11.478;2023-01-27T00:12:30;95174.41;;;-0.89;100.00
19457;BME280;9867;48.094;11.478;2023-01-27T00:15:15;95174.34;;;-0.78;100.00
19457;BME280;9867;48.094;11.478;2023-01-27T00:17:42;95177.69;;;-0.98;100.00
19457;BME280;9867;48.094;11.478;2023-01-27T00:20:09;95165.91;;;-0.98;100.00
19457;BME280;9867;48.094;11.478;2023-01-27T00:22:37;95174.66;;;-0.92;100.00
19457;BME280;9867;48.094;11.478;2023-01-27T00:25:21;95173.44;;;-0.98;100.00
19457;BME280;9867;48.094;11.478;2023-01-27T00:27:47;95171.50;;;-0.85;100.00
19457;BME280;9867;48.094;11.478;2023-01-27T00:30:14;95174.28;;;-0.88;100.00
19457;BME280;9867;48.094;11.478;2023-01-27T00:32:40;95166.16;;;-1.01;100.00
19457;BME280;9867;48.094;11.478;2023-01-27T00:35:25;95165.44;;;-0.82;100.00
19457;BME280;9867;48.094;11.478;2023-01-27T00:37:53;95159.22;;;-0.78;100.00
19457;BME280;9867;48.094;11.478;2023-01-27T00:40:19;95158.72;;;-0.72;100.00
19457;BME280;9867;48.094;11.478;2023-01-27T00:42:46;95160.44;;;-0.73;100.00
19457;BME280;9867;48.094;11.478;2023-01-27T00:45:12;95157.41;;;-0.66;100.00
19457;BME280;9867;48.094;11.478;2023-01-27T00:47:57;95154.97;;;-0.78;100.00
19457;BME280;9867;48.094;11.478;2023-01-27T00:50:24;95155.22;;;-0.81;100.00
19457;BME280;9867;48.094;11.478;2023-01-27T00:52:50;95169.13;;;-0.86;100.00
19457;BME280;9867;48.094;11.478;2023-01-27T00:55:18;95170.47;;;-0.82;100.00
19457;BME280;9867;48.094;11.478;2023-01-27T00:57:45;95159.84;;;-0.86;100.00
19457;BME280;9867;48.094;11.478;2023-01-27T01:00:13;95164.94;;;-0.76;100.00
19457;BME280;9867;48.094;11.478;2023-01-27T01:02:40;95169.06;;;-0.65;100.00
19457;BME280;9867;48.094;11.478;2023-01-27T01:05:07;95170.91;;;-0.68;100.00
19457;BME280;9867;48.094;11.478;2023-01-27T01:07:34;95178.25;;;-0.85;100.00
19457;BME280;9867;48.094;11.478;2023-01-27T01:10:00;95172.56;;;-0.87;100.00
19457;BME280;9867;48.094;11.478;2023-01-27T01:12:27;95174.56;;;-0.81;100.00
19457;BME280;9867;48.094;11.478;2023-01-27T01:14:54;95170.88;;;-0.77;100.00
19457;BME280;9867;48.094;11.478;2023-01-27T01:17:20;95183.25;;;-0.64;100.00
19457;BME280;9867;48.094;11.478;2023-01-27T01:19:47;95176.19;;;-0.71;100.00
19457;BME280;9867;48.094;11.478;2023-01-27T01:22:14;95177.59;;;-0.87;100.00
19457;BME280;9867;48.094;11.478;2023-01-27T01:24:40;95176.41;;;-0.83;100.00
19457;BME280;9867;48.094;11.478;2023-01-27T01:27:06;95186.19;;;-0.90;100.00
19457;BME280;9867;48.094;11.478;2023-01-27T01:29:33;95182.75;;;-1.19;100.00
19457;BME280;9867;48.094;11.478;2023-01-27T01:32:00;95181.94;;;-1.20;100.00
19457;BME280;9867;48.094;11.478;2023-01-27T01:34:29;95176.47;;;-0.74;100.00
19457;BME280;9867;48.094;11.478;2023-01-27T01:36:57;95168.94;;;-0.94;100.00
19457;BME280;9867;48.094;11.478;2023-01-27T01:39:23;95165.16;;;-1.10;100.00
19457;BME280;9867;48.094;11.478;2023-01-27T01:41:49;95170.81;;;-0.96;100.00
19457;BME280;9867;48.094;11.478;2023-01-27T01:44:18;95170.63;;;-0.74;100.00
19457;BME280;9867;48.094;11.478;2023-01-27T01:46:46;95175.84;;;-0.96;100.00
19457;BME280;9867;48.094;11.478;2023-01-27T01:49:13;95168.09;;;-1.05;100.00
19457;BME280;9867;48.094;11.478;2023-01-27T01:51:43;95161.41;;;-1.15;100.00
19457;BME280;9867;48.094;11.478;2023-01-27T01:54:13;95158.78;;;-1.14;100.00
19457;BME280;9867;48.094;11.478;2023-01-27T01:56:46;95154.47;;;-1.02;100.00
19457;BME280;9867;48.094;11.478;2023-01-27T01:59:17;95153.47;;;-1.20;100.00
19457;BME280;9867;48.094;11.478;2023-01-27T02:01:44;95148.03;;;-1.16;100.00
19457;BME280;9867;48.094;11.478;2023-01-27T02:04:15;95135.31;;;-1.24;100.00
19457;BME280;9867;48.094;11.478;2023-01-27T02:06:48;95139.09;;;-1.29;100.00
19457;BME280;9867;48.094;11.478;2023-01-27T02:09:16;95138.72;;;-1.25;100.00
19457;BME280;9867;48.094;11.478;2023-01-27T02:11:45;95142.41;;;-1.29;100.00
19457;BME280;9867;48.094;11.478;2023-01-27T02:14:13;95151.25;;;-1.34;100.00
19457;BME280;9867;48.094;11.478;2023-01-27T02:16:40;95161.78;;;-1.41;100.00
19457;BME280;9867;48.094;11.478;2023-01-27T02:19:09;95159.69;;;-1.45;100.00
19457;BME280;9867;48.094;11.478;2023-01-27T02:21:38;95156.03;;;-1.52;100.00
19457;BME280;9867;48.094;11.478;2023-01-27T02:24:05;95153.59;;;-1.43;100.00
19457;BME280;9867;48.094;11.478;2023-01-27T02:26:40;95158.47;;;-1.62;100.00
19457;BME280;9867;48.094;11.478;2023-01-27T02:29:10;95162.97;;;-1.65;100.00
19457;BME280;9867;48.094;11.478;2023-01-27T02:31:37;95147.69;;;-1.53;100.00
19457;BME280;9867;48.094;11.478;2023-01-27T02:34:06;95143.72;;;-1.55;100.00
19457;BME280;9867;48.094;11.478;2023-01-27T02:36:39;95149.78;;;-1.58;100.00
19457;BME280;9867;48.094;11.478;2023-01-27T02:39:08;95137.75;;;-1.33;100.00
19457;BME280;9867;48.094;11.478;2023-01-27T02:41:39;95159.72;;;-1.35;100.00
19457;BME280;9867;48.094;11.478;2023-01-27T02:44:07;95161.94;;;-1.42;100.00
19457;BME280;9867;48.094;11.478;2023-01-27T02:46:35;95152.06;;;-1.55;100.00
19457;BME280;9867;48.094;11.478;2023-01-27T02:49:02;95146.09;;;-1.54;100.00
19457;BME280;9867;48.094;11.478;2023-01-27T02:51:28;95141.31;;;-1.57;100.00
19457;BME280;9867;48.094;11.478;2023-01-27T02:53:57;95145.00;;;-1.61;100.00
19457;BME280;9867;48.094;11.478;2023-01-27T02:56:24;95147.56;;;-1.72;100.00
19457;BME280;9867;48.094;11.478;2023-01-27T02:58:54;95148.13;;;-1.89;100.00
19457;BME280;9867;48.094;11.478;2023-01-27T03:01:27;95140.38;;;-1.77;100.00
19457;BME280;9867;48.094;11.478;2023-01-27T03:03:58;95144.50;;;-1.76;100.00
19457;BME280;9867;48.094;11.478;2023-01-27T03:06:24;95141.69;;;-1.61;100.00
19457;BME280;9867;48.094;11.478;2023-01-27T03:08:52;95130.34;;;-1.77;100.00
19457;BME280;9867;48.094;11.478;2023-01-27T03:11:18;95141.88;;;-1.74;100.00
19457;BME280;9867;48.094;11.478;2023-01-27T03:14:02;95141.63;;;-1.71;100.00
19457;BME280;9867;48.094;11.478;2023-01-27T03:16:29;95132.97;;;-1.57;100.00
19457;BME280;9867;48.094;11.478;2023-01-27T03:19:15;95144.94;;;-1.50;100.00
19457;BME280;9867;48.094;11.478;2023-01-27T03:21:41;95141.44;;;-1.58;100.00
19457;BME280;9867;48.094;11.478;2023-01-27T03:24:10;95141.66;;;-1.41;100.00
19457;BME280;9867;48.094;11.478;2023-01-27T03:26:37;95141.25;;;-1.46;100.00
19457;BME280;9867;48.094;11.478;2023-01-27T03:29:06;95150.94;;;-1.62;100.00
19457;BME280;9867;48.094;11.478;2023-01-27T03:31:51;95139.72;;;-1.79;100.00
19457;BME280;9867;48.094;11.478;2023-01-27T03:34:18;95141.59;;;-1.92;100.00
19457;BME280;9867;48.094;11.478;2023-01-27T03:37:02;95133.03;;;-1.89;100.00
19457;BME280;9867;48.094;11.478;2023-01-27T03:39:46;95130.13;;;-1.85;100.00
19457;BME280;9867;48.094;11.478;2023-01-27T03:42:31;95133.75;;;-1.78;100.00
19457;BME280;9867;48.094;11.478;2023-01-27T03:45:16;95135.16;;;-1.85;100.00
19457;BME280;9867;48.094;11.478;2023-01-27T03:48:01;95130.00;;;-1.83;100.00
19457;BME280;9867;48.094;11.478;2023-01-27T03:50:27;95133.66;;;-1.76;100.00
19457;BME280;9867;48.094;11.478;2023-01-27T03:53:02;95126.13;;;-1.87;100.00
19457;BME280;9867;48.094;11.478;2023-01-27T03:55:29;95129.56;;;-1.88;100.00
19457;BME280;9867;48.094;11.478;2023-01-27T03:57:55;95126.47;;;-1.81;100.00
19457;BME280;9867;48.094;11.478;2023-01-27T04:00:22;95124.25;;;-1.74;100.00
19457;BME280;9867;48.094;11.478;2023-01-27T04:02:49;95126.97;;;-1.66;100.00
19457;BME280;9867;48.094;11.478;2023-01-27T04:05:33;95127.44;;;-1.93;100.00
19457;BME280;9867;48.094;11.478;2023-01-27T04:08:18;95127.31;;;-1.91;100.00
19457;BME280;9867;48.094;11.478;2023-01-27T04:10:44;95134.97;;;-1.93;100.00
19457;BME280;9867;48.094;11.478;2023-01-27T04:13:30;95127.25;;;-2.01;100.00
19457;BME280;9867;48.094;11.478;2023-01-27T04:15:57;95134.69;;;-1.79;100.00
19457;BME280;9867;48.094;11.478;2023-01-27T04:18:24;95128.91;;;-1.90;100.00
19457;BME280;9867;48.094;11.478;2023-01-27T04:20:50;95127.75;;;-1.86;100.00
19457;BME280;9867;48.094;11.478;2023-01-27T04:23:16;95131.44;;;-1.90;100.00
19457;BME280;9867;48.094;11.478;2023-01-27T04:25:43;95130.13;;;-1.85;100.00
19457;BME280;9867;48.094;11.478;2023-01-27T04:28:13;95130.13;;;-1.85;100.00
19457;BME280;9867;48.094;11.478;2023-01-27T04:30:40;95130.56;;;-1.80;100.00
19457;BME280;9867;48.094;11.478;2023-01-27T04:33:07;95140.38;;;-1.77;100.00
19457;BME280;9867;48.094;11.478;2023-01-27T04:35:35;95131.16;;;-1.87;100.00
19457;BME280;9867;48.094;11.478;2023-01-27T04:38:04;95136.31;;;-1.89;100.00
19457;BME280;9867;48.094;11.478;2023-01-27T04:40:31;95134.25;;;-1.84;100.00
19457;BME280;9867;48.094;11.478;2023-01-27T04:42:57;95132.19;;;-1.58;100.00
19457;BME280;9867;48.094;11.478;2023-01-27T04:45:23;95129.91;;;-1.61;100.00
19457;BME280;9867;48.094;11.478;2023-01-27T04:47:50;95130.69;;;-1.81;100.00
19457;BME280;9867;48.094;11.478;2023-01-27T04:50:17;95133.69;;;-1.87;100.00
19457;BME280;9867;48.094;11.478;2023-01-27T04:52:44;95131.16;;;-1.87;100.00
19457;BME280;9867;48.094;11.478;2023-01-27T04:55:10;95134.75;;;-1.69;100.00
19457;BME280;9867;48.094;11.478;2023-01-27T04:57:37;95137.28;;;-1.69;100.00
19457;BME280;9867;48.094;11.478;2023-01-27T05:00:05;95136.63;;;-1.82;100.00
19457;BME280;9867;48.094;11.478;2023-01-27T05:02:31;95134.34;;;-1.85;100.00
19457;BME280;9867;48.094;11.478;2023-01-27T05:04:58;95140.63;;;-1.80;100.00
19457;BME280;9867;48.094;11.478;2023-01-27T05:07:25;95136.53;;;-1.81;100.00
19457;BME280;9867;48.094;11.478;2023-01-27T05:09:51;95141.75;;;-1.73;100.00
19457;BME280;9867;48.094;11.478;2023-01-27T05:12:18;95142.97;;;-1.67;100.00
19457;BME280;9867;48.094;11.478;2023-01-27T05:14:44;95143.59;;;-1.75;100.00
19457;BME280;9867;48.094;11.478;2023-01-27T05:17:11;95144.88;;;-1.59;100.00
19457;BME280;9867;48.094;11.478;2023-01-27T05:19:37;95137.75;;;-1.33;100.00
19457;BME280;9867;48.094;11.478;2023-01-27T05:22:04;95145.63;;;-1.48;100.00
19457;BME280;9867;48.094;11.478;2023-01-27T05:24:31;95153.41;;;-1.51;100.00
19457;BME280;9867;48.094;11.478;2023-01-27T05:26:58;95141.44;;;-1.58;100.00
19457;BME280;9867;48.094;11.478;2023-01-27T05:29:29;95152.66;;;-1.62;100.00
19457;BME280;9867;48.094;11.478;2023-01-27T05:31:56;95148.53;;;-1.63;100.00
19457;BME280;9867;48.094;11.478;2023-01-27T05:34:22;95156.97;;;-1.53;100.00
19457;BME280;9867;48.094;11.478;2023-01-27T05:36:49;95163.72;;;-1.54;100.00
19457;BME280;9867;48.094;11.478;2023-01-27T05:39:16;95159.66;;;-1.66;100.00
19457;BME280;9867;48.094;11.478;2023-01-27T05:41:44;95171.56;;;-1.47;100.00
19457;BME280;9867;48.094;11.478;2023-01-27T05:44:11;95163.91;;;-1.66;100.00
19457;BME280;9867;48.094;11.478;2023-01-27T05:46:39;95165.63;;;-1.67;100.00
19457;BME280;9867;48.094;11.478;2023-01-27T05:49:06;95175.03;;;-1.59;100.00
19457;BME280;9867;48.094;11.478;2023-01-27T05:51:34;95173.03;;;-1.65;100.00
19457;BME280;9867;48.094;11.478;2023-01-27T05:54:01;95172.41;;;-1.58;100.00
19457;BME280;9867;48.094;11.478;2023-01-27T05:56:27;95177.31;;;-1.56;100.00
19457;BME280;9867;48.094;11.478;2023-01-27T05:58:56;95182.34;;;-1.56;100.00
19457;BME280;9867;48.094;11.478;2023-01-27T06:01:24;95177.28;;;-1.45;100.00
19457;BME280;9867;48.094;11.478;2023-01-27T06:03:51;95176.03;;;-1.51;100.00
19457;BME280;9867;48.094;11.478;2023-01-27T06:06:20;95181.63;;;-1.47;100.00
19457;BME280;9867;48.094;11.478;2023-01-27T06:08:48;95186.16;;;-1.62;100.00
19457;BME280;9867;48.094;11.478;2023-01-27T06:11:16;95191.28;;;-1.63;100.00
19457;BME280;9867;48.094;11.478;2023-01-27T06:13:44;95192.28;;;-1.55;100.00
19457;BME280;9867;48.094;11.478;2023-01-27T06:16:13;95193.16;;;-1.65;100.00
19457;BME280;9867;48.094;11.478;2023-01-27T06:18:42;95197.31;;;-1.55;100.00
19457;BME280;9867;48.094;11.478;2023-01-27T06:21:10;95195.25;;;-1.50;100.00
19457;BME280;9867;48.094;11.478;2023-01-27T06:23:37;95199.84;;;-1.55;100.00
19457;BME280;9867;48.094;11.478;2023-01-27T06:26:07;95194.47;;;-1.61;100.00
19457;BME280;9867;48.094;11.478;2023-01-27T06:28:34;95199.59;;;-1.52;100.00
19457;BME280;9867;48.094;11.478;2023-01-27T06:31:05;95200.44;;;-1.42;100.00
19457;BME280;9867;48.094;11.478;2023-01-27T06:33:33;95203.59;;;-1.49;100.00
19457;BME280;9867;48.094;11.478;2023-01-27T06:36:01;95208.50;;;-1.27;100.00
19457;BME280;9867;48.094;11.478;2023-01-27T06:38:28;95205.63;;;-1.43;100.00
19457;BME280;9867;48.094;11.478;2023-01-27T06:40:54;95213.31;;;-1.56;100.00
19457;BME280;9867;48.094;11.478;2023-01-27T06:43:20;95205.78;;;-1.56;100.00
19457;BME280;9867;48.094;11.478;2023-01-27T06:45:48;95203.63;;;-1.60;100.00
19457;BME280;9867;48.094;11.478;2023-01-27T06:48:15;95216.16;;;-1.49;100.00
19457;BME280;9867;48.094;11.478;2023-01-27T06:50:42;95216.84;;;-1.47;100.00
19457;BME280;9867;48.094;11.478;2023-01-27T06:53:08;95225.06;;;-1.45;100.00
19457;BME280;9867;48.094;11.478;2023-01-27T06:55:36;95238.00;;;-1.50;100.00
19457;BME280;9867;48.094;11.478;2023-01-27T06:58:06;95226.09;;;-1.68;100.00
19457;BME280;9867;48.094;11.478;2023-01-27T07:00:33;95237.78;;;-1.47;100.00
19457;BME280;9867;48.094;11.478;2023-01-27T07:03:01;95231.03;;;-1.25;100.00
19457;BME280;9867;48.094;11.478;2023-01-27T07:05:27;95222.09;;;-1.18;100.00
19457;BME280;9867;48.094;11.478;2023-01-27T07:07:54;95230.56;;;-1.19;100.00
19457;BME280;9867;48.094;11.478;2023-01-27T07:10:21;95215.88;;;1.31;100.00
19457;BME280;9867;48.094;11.478;2023-01-27T07:12:48;95237.16;;;1.66;100.00
19457;BME280;9867;48.094;11.478;2023-01-27T07:15:14;95248.63;;;0.27;100.00
19457;BME280;9867;48.094;11.478;2023-01-27T07:17:41;95246.09;;;0.17;100.00
19457;BME280;9867;48.094;11.478;2023-01-27T07:20:10;95239.53;;;-0.45;100.00
19457;BME280;9867;48.094;11.478;2023-01-27T07:22:38;95249.06;;;-0.79;100.00
19457;BME280;9867;48.094;11.478;2023-01-27T07:25:06;95234.91;;;-0.49;100.00
19457;BME280;9867;48.094;11.478;2023-01-27T07:27:33;95239.50;;;-0.85;100.00
19457;BME280;9867;48.094;11.478;2023-01-27T07:29:59;95236.88;;;-1.04;100.00
19457;BME280;9867;48.094;11.478;2023-01-27T07:32:26;95240.22;;;-0.94;100.00
19457;BME280;9867;48.094;11.478;2023-01-27T07:34:54;95233.47;;;-0.93;100.00
19457;BME280;9867;48.094;11.478;2023-01-27T07:37:20;95228.41;;;-1.03;100.00
19457;BME280;9867;48.094;11.478;2023-01-27T07:39:47;95224.03;;;-1.22;100.00
19457;BME280;9867;48.094;11.478;2023-01-27T07:42:14;95222.00;;;-1.28;100.00
19457;BME280;9867;48.094;11.478;2023-01-27T07:44:40;95226.28;;;-1.40;100.00
19457;BME280;9867;48.094;11.478;2023-01-27T07:47:07;95230.94;;;-1.56;100.00
19457;BME280;9867;48.094;11.478;2023-01-27T07:49:33;95232.78;;;-1.58;100.00
19457;BME280;9867;48.094;11.478;2023-01-27T07:52:00;95227.75;;;-1.58;100.00
19457;BME280;9867;48.094;11.478;2023-01-27T07:54:27;95222.47;;;-1.55;100.00
19457;BME280;9867;48.094;11.478;2023-01-27T07:56:53;95218.31;;;-1.65;100.00
19457;BME280;9867;48.094;11.478;2023-01-27T07:59:20;95224.84;;;-1.74;100.00
19457;BME280;9867;48.094;11.478;2023-01-27T08:01:47;95221.28;;;-1.72;100.00
19457;BME280;9867;48.094;11.478;2023-01-27T08:04:14;95217.88;;;-1.82;100.00
19457;BME280;9867;48.094;11.478;2023-01-27T08:06:40;95224.03;;;-1.75;100.00
19457;BME280;9867;48.094;11.478;2023-01-27T08:09:07;95219.25;;;-1.78;100.00
19457;BME280;9867;48.094;11.478;2023-01-27T08:11:33;95221.72;;;-1.66;100.00
19457;BME280;9867;48.094;11.478;2023-01-27T08:14:00;95214.47;;;-1.60;100.00
19457;BME280;9867;48.094;11.478;2023-01-27T08:16:28;95220.38;;;-1.70;100.00
19457;BME280;9867;48.094;11.478;2023-01-27T08:18:54;95227.28;;;-1.63;100.00
19457;BME280;9867;48.094;11.478;2023-01-27T08:21:21;95229.91;;;-1.53;100.00
19457;BME280;9867;48.094;11.478;2023-01-27T08:23:48;95228.88;;;-1.51;100.00
19457;BME280;9867;48.094;11.478;2023-01-27T08:26:14;95232.22;;;-1.41;100.00
19457;BME280;9867;48.094;11.478;2023-01-27T08:28:41;95233.03;;;-1.40;100.00
19457;BME280;9867;48.094;11.478;2023-01-27T08:31:09;95239.78;;;-1.41;100.00
19457;BME280;9867;48.094;11.478;2023-01-27T08:33:37;95242.13;;;-1.49;100.00
19457;BME280;9867;48.094;11.478;2023-01-27T08:36:06;95243.09;;;-1.40;100.00
19457;BME280;9867;48.094;11.478;2023-01-27T08:38:32;95240.47;;;-1.39;100.00
19457;BME280;9867;48.094;11.478;2023-01-27T08:41:03;95233.16;;;-1.42;100.00
19457;BME280;9867;48.094;11.478;2023-01-27T08:43:29;95234.75;;;-1.41;100.00
19457;BME280;9867;48.094;11.478;2023-01-27T08:45:56;95251.84;;;-1.55;100.00
19457;BME280;9867;48.094;11.478;2023-01-27T08:48:23;95247.63;;;-1.55;100.00
19457;BME280;9867;48.094;11.478;2023-01-27T08:50:50;95251.28;;;-1.59;100.00
19457;BME280;9867;48.094;11.478;2023-01-27T08:53:17;95259.59;;;-1.47;100.00
19457;BME280;9867;48.094;11.478;2023-01-27T08:55:43;95271.03;;;-1.43;100.00
19457;BME280;9867;48.094;11.478;2023-01-27T08:58:10;95267.28;;;-1.49;100.00
19457;BME280;9867;48.094;11.478;2023-01-27T09:00:38;95263.72;;;-1.46;100.00
19457;BME280;9867;48.094;11.478;2023-01-27T09:03:05;95266.13;;;-1.45;100.00
19457;BME280;9867;48.094;11.478;2023-01-27T09:05:33;95269.59;;;-1.36;100.00
19457;BME280;9867;48.094;11.478;2023-01-27T09:08:04;95267.34;;;-1.39;100.00
19457;BME280;9867;48.094;11.478;2023-01-27T09:10:31;95273.41;;;-1.42;100.00
19457;BME280;9867;48.094;11.478;2023-01-27T09:12:57;95267.59;;;-1.42;100.00
19457;BME280;9867;48.094;11.478;2023-01-27T09:15:25;95266.81;;;-1.54;100.00
19457;BME280;9867;48.094;11.478;2023-01-27T09:17:52;95275.16;;;-1.53;100.00
19457;BME280;9867;48.094;11.478;2023-01-27T09:20:19;95251.84;;;-1.55;100.00
19457;BME280;9867;48.094;11.478;2023-01-27T09:22:45;95268.94;;;-1.38;100.00
19457;BME280;9867;48.094;11.478;2023-01-27T09:25:15;95265.59;;;-1.27;100.00
19457;BME280;9867;48.094;11.478;2023-01-27T09:27:42;95262.19;;;-1.38;100.00
19457;BME280;9867;48.094;11.478;2023-01-27T09:30:11;95274.53;;;-1.34;100.00
19457;BME280;9867;48.094;11.478;2023-01-27T09:32:40;95273.97;;;-1.38;100.00
19457;BME280;9867;48.094;11.478;2023-01-27T09:35:08;95292.31;;;-1.47;100.00
19457;BME280;9867;48.094;11.478;2023-01-27T09:37:37;95286.50;;;-1.59;100.00
19457;BME280;9867;48.094;11.478;2023-01-27T09:40:12;95290.16;;;-1.63;100.00
19457;BME280;9867;48.094;11.478;2023-01-27T09:43:16;95281.59;;;-1.60;100.00
19457;BME280;9867;48.094;11.478;2023-01-27T09:46:06;95291.63;;;-1.49;100.00
19457;BME280;9867;48.094;11.478;2023-01-27T09:48:53;95270.94;;;-1.53;100.00
19457;BME280;9867;48.094;11.478;2023-01-27T09:51:35;95270.69;;;-1.50;100.00
19457;BME280;9867;48.094;11.478;2023-01-27T09:57:10;95265.72;;;-1.40;100.00
19457;BME280;9867;48.094;11.478;2023-01-27T10:03:01;95282.16;;;-1.25;100.00
19457;BME280;9867;48.094;11.478;2023-01-27T10:05:51;95272.41;;;-1.18;100.00
19457;BME280;9867;48.094;11.478;2023-01-27T10:08:41;95281.53;;;-1.17;100.00
19457;BME280;9867;48.094;11.478;2023-01-27T10:11:17;95281.53;;;-1.17;100.00
19457;BME280;9867;48.094;11.478;2023-01-27T10:13:55;95281.97;;;-1.12;100.00
19457;BME280;9867;48.094;11.478;2023-01-27T10:16:40;95293.63;;;-1.11;100.00
19457;BME280;9867;48.094;11.478;2023-01-27T10:19:20;95292.28;;;-1.15;100.00
19457;BME280;9867;48.094;11.478;2023-01-27T10:21:56;95294.69;;;-1.14;100.00
19457;BME280;9867;48.094;11.478;2023-01-27T10:24:35;95289.84;;;-1.06;100.00
19457;BME280;9867;48.094;11.478;2023-01-27T10:27:12;95284.31;;;-1.20;100.00
19457;BME280;9867;48.094;11.478;2023-01-27T10:29:43;95288.44;;;-1.19;100.00
19457;BME280;9867;48.094;11.478;2023-01-27T10:32:19;95271.34;;;-1.16;100.00
19457;BME280;9867;48.094;11.478;2023-01-27T10:34:54;95299.19;;;-0.96;100.00
19457;BME280;9867;48.094;11.478;2023-01-27T10:37:29;95291.81;;;-0.88;100.00
19457;BME280;9867;48.094;11.478;2023-01-27T10:40:04;95291.00;;;-0.89;100.00
19457;BME280;9867;48.094;11.478;2023-01-27T10:42:38;95292.72;;;-1.10;100.00
19457;BME280;9867;48.094;11.478;2023-01-27T10:45:23;95299.34;;;-1.09;100.00
19457;BME280;9867;48.094;11.478;2023-01-27T10:48:13;95294.28;;;-0.98;100.00
19457;BME280;9867;48.094;11.478;2023-01-27T10:50:47;95301.16;;;-1.00;100.00
19457;BME280;9867;48.094;11.478;2023-01-27T10:53:19;95303.97;;;-0.93;100.00
19457;BME280;9867;48.094;11.478;2023-01-27T10:55:53;95297.59;;;-0.97;100.00
19457;BME280;9867;48.094;11.478;2023-01-27T10:58:31;95303.13;;;-1.04;100.00
19457;BME280;9867;48.094;11.478;2023-01-27T11:01:04;95300.25;;;-0.99;100.00
19457;BME280;9867;48.094;11.478;2023-01-27T11:03:51;95303.72;;;-0.90;100.00
19457;BME280;9867;48.094;11.478;2023-01-27T11:06:21;95300.91;;;-0.97;100.00
19457;BME280;9867;48.094;11.478;2023-01-27T11:08:50;95307.03;;;-0.90;100.00
19457;BME280;9867;48.094;11.478;2023-01-27T11:11:20;95298.31;;;-0.86;100.00
19457;BME280;9867;48.094;11.478;2023-01-27T11:14:13;95304.63;;;-0.91;100.00
19457;BME280;9867;48.094;11.478;2023-01-27T11:16:44;95306.75;;;-0.96;100.00
19457;BME280;9867;48.094;11.478;2023-01-27T11:19:23;95305.75;;;-1.05;100.00
19457;BME280;9867;48.094;11.478;2023-01-27T11:21:52;95306.66;;;-1.06;100.00
19457;BME280;9867;48.094;11.478;2023-01-27T11:24:39;95301.53;;;-1.16;100.00
19457;BME280;9867;48.094;11.478;2023-01-27T11:27:13;95288.28;;;-1.18;100.00
19457;BME280;9867;48.094;11.478;2023-01-27T11:29:47;95288.56;;;-1.21;100.00
19457;BME280;9867;48.094;11.478;2023-01-27T11:32:27;95292.69;;;-0.99;100.00
19457;BME280;9867;48.094;11.478;2023-01-27T11:35:01;95286.97;;;-0.80;100.00
19457;BME280;9867;48.094;11.478;2023-01-27T11:37:31;95296.81;;;-0.77;100.00
19457;BME280;9867;48.094;11.478;2023-01-27T11:39:59;95296.28;;;-0.92;100.00
19457;BME280;9867;48.094;11.478;2023-01-27T11:42:29;95285.75;;;-0.86;100.00
19457;BME280;9867;48.094;11.478;2023-01-27T11:44:57;95292.31;;;-0.74;100.00
19457;BME280;9867;48.094;11.478;2023-01-27T11:47:27;95292.81;;;-0.80;100.00
19457;BME280;9867;48.094;11.478;2023-01-27T11:49:57;95289.97;;;-0.86;100.00
19457;BME280;9867;48.094;11.478;2023-01-27T11:52:26;95289.97;;;-0.86;100.00
19457;BME280;9867;48.094;11.478;2023-01-27T11:54:58;95291.09;;;-0.79;100.00
19457;BME280;9867;48.094;11.478;2023-01-27T11:57:26;95296.03;;;-0.68;100.00
19457;BME280;9867;48.094;11.478;2023-01-27T11:59:57;95295.63;;;-0.52;100.00
19457;BME280;9867;48.094;11.478;2023-01-27T12:02:31;95299.75;;;-0.42;100.00
19457;BME280;9867;48.094;11.478;2023-01-27T12:05:05;95285.50;;;-0.31;100.00
19457;BME280;9867;48.094;11.478;2023-01-27T12:07:41;95295.09;;;-0.16;100.00
19457;BME280;9867;48.094;11.478;2023-01-27T12:10:25;95288.16;;;-0.23;100.00
19457;BME280;9867;48.094;11.478;2023-01-27T12:12:54;95285.94;;;-0.26;100.00
19457;BME280;9867;48.094;11.478;2023-01-27T12:15:22;95289.06;;;-0.34;100.00
19457;BME280;9867;48.094;11.478;2023-01-27T12:17:53;95285.16;;;-0.17;100.00
19457;BME280;9867;48.094;11.478;2023-01-27T12:20:30;95276.97;;;-0.40;100.00
19457;BME280;9867;48.094;11.478;2023-01-27T12:23:00;95286.78;;;-0.37;100.00
19457;BME280;9867;48.094;11.478;2023-01-27T12:25:31;95282.19;;;-0.22;100.00
19457;BME280;9867;48.094;11.478;2023-01-27T12:28:18;95281.25;;;-0.01;100.00
19457;BME280;9867;48.094;11.478;2023-01-27T12:30:47;95278.59;;;0.11;100.00
19457;BME280;9867;48.094;11.478;2023-01-27T12:33:22;95283.66;;;0.11;100.00
19457;BME280;9867;48.094;11.478;2023-01-27T12:35:50;95282.16;;;-0.02;100.00
19457;BME280;9867;48.094;11.478;2023-01-27T12:38:20;95276.47;;;-0.34;100.00
19457;BME280;9867;48.094;11.478;2023-01-27T12:40:54;95275.78;;;-0.36;100.00
19457;BME280;9867;48.094;11.478;2023-01-27T12:43:22;95274.94;;;-0.16;100.00
19457;BME280;9867;48.094;11.478;2023-01-27T12:46:04;95277.69;;;-0.28;100.00
19457;BME280;9867;48.094;11.478;2023-01-27T12:48:31;95281.88;;;-0.08;100.00
19457;BME280;9867;48.094;11.478;2023-01-27T12:51:13;95269.28;;;0.02;100.00
19457;BME280;9867;48.094;11.478;2023-01-27T12:54:18;95289.19;;;-0.05;100.00
19457;BME280;9867;48.094;11.478;2023-01-27T12:56:52;95282.50;;;-0.16;100.00
19457;BME280;9867;48.094;11.478;2023-01-27T12:59:22;95275.16;;;-0.28;100.00
19457;BME280;9867;48.094;11.478;2023-01-27T13:01:59;95286.00;;;-0.38;100.00
19457;BME280;9867;48.094;11.478;2023-01-27T13:04:26;95271.56;;;-0.36;100.00
19457;BME280;9867;48.094;11.478;2023-01-27T13:06:56;95268.47;;;-0.39;100.00
19457;BME280;9867;48.094;11.478;2023-01-27T13:09:32;95258.94;;;-0.36;100.00
19457;BME280;9867;48.094;11.478;2023-01-27T13:12:01;95278.19;;;-0.04;100.00